Time;durP1;ratioP1;P1;durP2;ratioP2;P2;SDS_P1;SDS_P2;PMS_P1;PMS_P2;Temp;Humidity;BMP_temperature;BMP_pressure;BME280_temperature;BME280_humidity;BME280_pressure;Samples;Min_cycle;Max_cycle;Signal;HPM_P1;HPM_P2
2022/09/20 00:01:22;;;;;;;0.10;0.10;;;;;;;14.39;64.41;102396.53;5062189;28;20036;-78
2022/09/20 00:03:51;;;;;;;0.10;0.10;;;;;;;14.37;64.94;102406.34;5057669;28;20033;-77
2022/09/20 00:06:20;;;;;;;0.10;0.10;;;;;;;14.31;65.77;102395.75;5067269;28;20402;-77
2022/09/20 00:08:47;;;;;;;0.20;0.20;;;;;;;14.27;65.45;102386.00;5059432;28;20033;-78
2022/09/20 00:11:17;;;;;;;0.10;0.10;;;;;;;14.24;65.90;102382.47;5065339;28;20040;-77
2022/09/20 00:13:44;;;;;;;0.10;0.10;;;;;;;14.29;65.95;102378.88;5069613;28;20032;-77
2022/09/20 00:16:14;;;;;;;0.10;0.10;;;;;;;14.30;66.01;102381.50;5064821;28;20072;-77
2022/09/20 00:18:40;;;;;;;0.20;0.20;;;;;;;14.28;66.13;102387.75;5057652;28;20017;-77
2022/09/20 00:21:14;;;;;;;0.10;0.10;;;;;;;14.28;66.06;102385.09;5062258;28;20029;-77
2022/09/20 00:23:40;;;;;;;0.10;0.10;;;;;;;14.27;66.43;102380.66;5065455;28;20032;-77
2022/09/20 00:26:06;;;;;;;0.10;0.10;;;;;;;14.27;66.22;102380.66;5066542;28;20024;-77
2022/09/20 00:28:33;;;;;;;0.10;0.10;;;;;;;14.26;65.71;102378.94;5060144;28;20070;-77
2022/09/20 00:30:59;;;;;;;0.10;0.10;;;;;;;14.25;66.57;102375.34;5060642;28;20043;-77
2022/09/20 00:35:06;;;;;;;0.10;0.10;;;;;;;14.26;65.75;102379.78;5062268;28;20144;-77
2022/09/20 00:36:12;;;;;;;0.10;0.10;;;;;;;14.29;66.03;102384.22;5066242;28;20035;-77
2022/09/20 00:38:38;;;;;;;0.13;0.13;;;;;;;14.31;66.11;102380.63;5062863;28;20021;-77
2022/09/20 00:41:05;;;;;;;0.05;0.05;;;;;;;14.35;66.11;102381.47;5066491;28;20032;-76
2022/09/20 00:43:44;;;;;;;0.10;0.10;;;;;;;14.45;66.17;102384.91;5056573;28;20159;-77
2022/09/20 00:46:44;;;;;;;0.10;0.10;;;;;;;14.47;66.68;102394.66;5062835;28;20036;-77
2022/09/20 00:49:24;;;;;;;0.10;0.10;;;;;;;14.44;67.14;102394.69;5055707;28;20068;-77
2022/09/20 00:51:55;;;;;;;0.10;0.10;;;;;;;14.35;67.70;102394.81;5071764;28;20081;-77
2022/09/20 00:54:24;;;;;;;0.10;0.10;;;;;;;14.30;67.16;102396.63;5068073;28;20102;-77
2022/09/20 00:56:51;;;;;;;0.10;0.10;;;;;;;14.27;67.76;102407.31;5070034;28;20020;-77
2022/09/20 00:59:38;;;;;;;0.10;0.10;;;;;;;14.28;68.49;102401.09;5063430;28;20032;-77
2022/09/20 01:02:11;;;;;;;0.00;0.00;;;;;;;14.27;68.30;102396.66;5066420;28;20024;-77
2022/09/20 01:04:40;;;;;;;0.10;0.10;;;;;;;14.22;68.37;102386.06;5065819;28;20024;-77
2022/09/20 01:07:09;;;;;;;0.30;0.30;;;;;;;14.17;68.54;102386.09;5071120;28;20028;-77
2022/09/20 01:09:36;;;;;;;0.10;0.10;;;;;;;14.19;68.96;102386.97;5058172;28;20042;-76
2022/09/20 01:12:08;;;;;;;0.00;0.00;;;;;;;14.20;69.03;102375.41;5071762;28;20016;-77
2022/09/20 01:14:34;;;;;;;0.10;0.10;;;;;;;14.24;68.11;102378.91;5065201;28;20020;-77
2022/09/20 01:17:04;;;;;;;0.10;0.10;;;;;;;14.31;68.04;102375.28;5063516;28;20047;-77
2022/09/20 01:22:19;;;;;;;0.10;0.10;;;;;;;14.43;67.95;102382.28;5108034;27;20375;-77
2022/09/20 01:25:01;;;;;;;0.10;0.10;;;;;;;14.50;67.58;102381.28;5083671;28;20036;-76
2022/09/20 01:27:44;;;;;;;;;;;;;;;14.66;67.25;102370.47;5089366;28;20371;-77
2022/09/20 01:30:16;;;;;;;0.10;0.10;;;;;;;14.60;67.82;102373.19;5084466;28;19908;-76
2022/09/20 01:33:05;;;;;;;0.10;0.10;;;;;;;14.64;67.76;102378.47;5083233;28;20027;-79
2022/09/20 01:35:34;;;;;;;0.08;0.08;;;;;;;14.62;68.28;102382.94;5087704;28;20032;-76
2022/09/20 01:49:20;;;;;;;0.10;0.10;;;;;;;14.51;67.98;102390.19;5053502;28;20769;-78
2022/09/20 01:52:26;;;;;;;0.10;0.10;;;;;;;14.53;68.97;102396.41;5054851;28;20037;-78
2022/09/20 01:55:24;;;;;;;0.50;0.50;;;;;;;14.51;68.92;102382.19;5052895;28;20040;-78
2022/09/20 02:00:33;;;;;;;0.10;0.10;;;;;;;14.45;68.32;102374.25;5060557;28;20750;-77
2022/09/20 02:06:13;;;;;;;0.10;0.10;;;;;;;14.51;68.86;102363.50;5027598;28;20408;-77
2022/09/20 02:08:55;;;;;;;0.10;0.10;;;;;;;14.49;68.80;102368.88;5021715;28;20049;-77
2022/09/20 02:14:29;;;;;;;0.03;0.03;;;;;;;14.46;68.69;102368.91;5069295;28;20354;-79
2022/09/20 02:17:02;;;;;;;0.10;0.10;;;;;;;14.42;68.76;102364.50;5065861;28;20500;-80
2022/09/20 02:22:39;;;;;;;0.05;0.05;;;;;;;14.54;68.78;102355.47;5087095;27;20405;-76
2022/09/20 02:30:54;;;;;;;0.10;0.10;;;;;;;14.66;68.60;102368.69;5092518;27;1208506;-76
2022/09/20 02:33:39;;;;;;;0.10;0.10;;;;;;;14.68;68.31;102382.03;5109272;28;20485;-77
2022/09/20 02:36:37;;;;;;;0.10;0.10;;;;;;;14.74;68.61;102379.25;5094146;28;20218;-77
2022/09/20 02:39:44;;;;;;;0.10;0.10;;;;;;;14.72;68.56;102378.41;5091826;28;20030;-76
2022/09/20 02:42:26;;;;;;;0.10;0.10;;;;;;;14.68;68.96;102366.03;5096065;28;20053;-76
2022/09/20 02:45:18;;;;;;;0.00;0.00;;;;;;;14.68;69.19;102358.00;5089713;28;20093;-77
2022/09/20 02:47:46;;;;;;;0.10;0.10;;;;;;;14.67;68.67;102358.91;5087630;28;20037;-77
2022/09/20 02:56:17;;;;;;;0.10;0.10;;;;;;;14.80;68.82;102354.28;5049660;28;20147;-76
2022/09/20 02:59:00;;;;;;;0.10;0.10;;;;;;;14.74;68.63;102359.69;5047754;28;20086;-77
2022/09/20 03:02:07;;;;;;;0.10;0.10;;;;;;;14.78;68.30;102356.97;5043728;28;20029;-76
2022/09/20 03:13:13;;;;;;;0.10;0.10;;;;;;;14.63;68.56;102359.78;5047363;28;20747;-76
2022/09/20 03:16:06;;;;;;;0.00;0.00;;;;;;;14.64;68.23;102361.56;5029799;28;20563;-76
2022/09/20 03:21:58;;;;;;;0.10;0.10;;;;;;;14.56;68.53;102362.53;5069479;28;20409;-76
2022/09/20 03:25:04;;;;;;;0.10;0.10;;;;;;;14.54;68.67;102364.38;5064526;28;20039;-76
2022/09/20 03:27:53;;;;;;;0.10;0.10;;;;;;;14.47;68.91;102368.00;5068298;28;20132;-76
2022/09/20 03:30:49;;;;;;;0.10;0.10;;;;;;;14.46;68.58;102360.91;5065017;28;20024;-76
2022/09/20 03:33:31;;;;;;;0.10;0.10;;;;;;;14.38;68.90;102362.75;5064159;28;20094;-76
2022/09/20 03:38:53;;;;;;;0.10;0.10;;;;;;;14.36;68.89;102375.25;5050637;28;20143;-76
2022/09/20 03:41:39;;;;;;;0.10;0.10;;;;;;;14.37;68.66;102369.03;5046480;28;20025;-77
2022/09/20 03:50:22;;;;;;;0.10;0.10;;;;;;;14.34;68.50;102372.59;5081521;27;20342;-76
2022/09/20 03:55:58;;;;;;;0.10;0.10;;;;;;;14.34;68.85;102369.94;5059155;28;20419;-77
2022/09/20 04:04:43;;;;;;;0.10;0.10;;;;;;;14.34;68.69;102377.03;5058343;28;20410;-76
2022/09/20 04:07:36;;;;;;;0.20;0.20;;;;;;;14.31;68.58;102382.41;5057060;28;20036;-76
2022/09/20 04:10:28;;;;;;;0.10;0.10;;;;;;;14.35;68.59;102378.81;5057961;28;20029;-76
2022/09/20 04:13:34;;;;;;;0.10;0.10;;;;;;;14.31;69.02;102382.41;5051478;28;20084;-76
2022/09/20 04:16:14;;;;;;;0.10;0.10;;;;;;;14.29;69.17;102378.88;5042453;28;20032;-76
2022/09/20 04:18:50;;;;;;;0.10;0.10;;;;;;;14.30;68.56;102380.66;5045820;28;20067;-76
2022/09/20 04:21:40;;;;;;;0.10;0.10;;;;;;;14.33;68.91;102377.94;5051330;28;20044;-76
2022/09/20 04:24:34;;;;;;;0.10;0.10;;;;;;;14.33;68.79;102375.25;5053808;28;20039;-76
2022/09/20 04:27:07;;;;;;;0.10;0.10;;;;;;;14.26;68.92;102379.78;5043387;28;20029;-76
2022/09/20 04:29:44;;;;;;;0.10;0.10;;;;;;;14.34;69.03;102382.38;5054761;28;20134;-76
2022/09/20 04:37:52;;;;;;;0.30;0.30;;;;;;;14.32;69.21;102379.72;5084798;28;20047;-77
2022/09/20 04:43:26;;;;;;;0.08;0.08;;;;;;;14.38;69.15;102390.31;5083505;28;20356;-78
2022/09/20 04:48:51;;;;;;;0.10;0.10;;;;;;;14.40;69.04;102387.63;5087810;27;20135;-74
2022/09/20 04:51:45;;;;;;;0.30;0.30;;;;;;;14.39;69.47;102399.19;5080791;28;20046;-77
2022/09/20 04:54:50;;;;;;;0.10;0.10;;;;;;;14.47;69.19;102394.66;5079737;28;20027;-77
2022/09/20 05:00:18;;;;;;;0.10;0.10;;;;;;;14.45;69.22;102393.78;5104949;27;20803;-76
2022/09/20 05:03:24;;;;;;;0.00;0.00;;;;;;;14.43;69.66;102402.72;5090099;28;20540;-76
2022/09/20 05:09:27;;;;;;;0.10;0.10;;;;;;;14.52;69.14;102394.63;5099979;27;20383;-78
2022/09/20 05:12:19;;;;;;;0.13;0.13;;;;;;;14.55;68.93;102391.91;5086244;28;20113;-78
2022/09/20 05:20:36;;;;;;;0.10;0.10;;;;;;;14.56;69.32;102394.53;5064637;28;20407;-77
2022/09/20 05:26:17;;;;;;;0.10;0.10;;;;;;;14.61;68.93;102396.31;5071187;27;1194176;-76
2022/09/20 05:28:56;;;;;;;0.10;0.10;;;;;;;14.57;69.21;102396.31;5093760;28;20038;-76
2022/09/20 05:37:36;;;;;;;0.10;0.10;;;;;;;14.57;69.23;102404.31;5074309;27;20405;-77
2022/09/20 05:40:27;;;;;;;0.10;0.10;;;;;;;14.59;68.98;102398.09;5068262;28;20032;-76
2022/09/20 05:43:06;;;;;;;0.10;0.10;;;;;;;14.59;68.90;102414.09;5071710;28;20029;-76
2022/09/20 05:46:12;;;;;;;0.10;0.10;;;;;;;14.64;68.88;102412.25;5062386;28;20515;-76
2022/09/20 05:48:51;;;;;;;0.10;0.10;;;;;;;14.63;68.73;102405.16;5072743;28;20039;-76
2022/09/20 05:51:32;;;;;;;0.10;0.10;;;;;;;14.63;68.94;102410.47;5066210;28;20024;-77
2022/09/20 05:59:51;;;;;;;0.10;0.10;;;;;;;14.63;69.08;102418.47;5107908;27;20140;-78
2022/09/20 06:02:45;;;;;;;0.10;0.10;;;;;;;14.71;69.13;102427.31;5097684;28;20124;-77
2022/09/20 06:05:38;;;;;;;0.10;0.10;;;;;;;14.74;69.11;102423.72;5093817;28;20031;-78
2022/09/20 06:16:47;;;;;;;0.10;0.10;;;;;;;14.85;68.81;102427.16;5113148;27;20882;-78
2022/09/20 06:19:44;;;;;;;0.10;0.10;;;;;;;14.84;69.04;102430.72;5102007;28;20509;-78
2022/09/20 06:22:25;;;;;;;0.10;0.10;;;;;;;14.94;68.50;102426.16;5084205;28;20070;-78
2022/09/20 06:25:02;;;;;;;0.10;0.10;;;;;;;14.93;68.44;102429.72;5084894;28;20038;-78
2022/09/20 06:27:33;;;;;;;0.10;0.10;;;;;;;14.89;68.68;102428.88;5075633;28;20020;-78
2022/09/20 06:30:04;;;;;;;0.10;0.10;;;;;;;14.88;68.71;102427.13;5078313;28;20032;-78
2022/09/20 06:32:30;;;;;;;0.10;0.10;;;;;;;14.85;68.74;102420.03;5086548;28;20713;-78
2022/09/20 06:35:01;;;;;;;0.30;0.30;;;;;;;14.87;68.65;102430.69;5079026;28;20384;-78
2022/09/20 06:43:24;;;;;;;0.03;0.03;;;;;;;14.85;68.57;102425.38;5077087;28;20043;-78
2022/09/20 06:45:50;;;;;;;0.10;0.10;;;;;;;14.85;68.82;102430.72;5070107;28;20021;-78
2022/09/20 06:48:18;;;;;;;0.10;0.10;;;;;;;14.88;69.05;102430.66;5081120;28;20055;-78
2022/09/20 06:50:44;;;;;;;0.10;0.10;;;;;;;14.92;69.11;102428.84;5081186;28;20475;-78
2022/09/20 06:53:16;;;;;;;0.38;0.38;;;;;;;14.98;69.05;102427.91;5086673;28;20028;-78
2022/09/20 06:55:43;;;;;;;0.10;0.10;;;;;;;14.97;69.14;102431.47;5077728;28;20052;-79
2022/09/20 06:58:10;;;;;;;0.85;0.85;;;;;;;15.00;69.09;102428.75;5075108;28;20036;-77
2022/09/20 07:00:38;;;;;;;0.10;0.10;;;;;;;15.07;68.68;102430.44;5080904;28;20070;-79
2022/09/20 07:03:05;;;;;;;0.10;0.10;;;;;;;15.14;68.57;102434.78;5083338;28;20028;-78
2022/09/20 07:05:31;;;;;;;0.25;0.25;;;;;;;15.18;68.46;102432.97;5087776;28;20391;-78
2022/09/20 07:07:58;;;;;;;0.10;0.10;;;;;;;15.23;68.38;102438.22;5087245;28;20501;-78
2022/09/20 07:10:27;;;;;;;0.10;0.10;;;;;;;15.26;68.32;102440.84;5087055;28;20136;-78
2022/09/20 07:13:01;;;;;;;0.10;0.10;;;;;;;15.32;68.01;102438.09;5084305;28;20507;-78
2022/09/20 07:15:29;;;;;;;0.10;0.10;;;;;;;15.31;67.67;102426.50;5085983;28;20171;-78
2022/09/20 07:17:55;;;;;;;0.08;0.08;;;;;;;15.32;67.62;102428.28;5085315;28;20036;-78
2022/09/20 07:20:22;;;;;;;0.30;0.30;;;;;;;15.35;67.82;102430.03;5077593;28;20134;-78
2022/09/20 07:22:48;;;;;;;0.10;0.10;;;;;;;15.32;67.71;102433.63;5077526;28;20538;-78
2022/09/20 07:25:17;;;;;;;0.10;0.10;;;;;;;15.36;67.71;102431.81;5084219;28;20032;-78
2022/09/20 07:27:45;;;;;;;0.10;0.10;;;;;;;15.40;67.50;102429.97;5068772;28;20112;-79
2022/09/20 07:30:13;;;;;;;0.10;0.10;;;;;;;15.44;67.43;102443.25;5065359;28;20041;-78
2022/09/20 07:32:39;;;;;;;0.10;0.10;;;;;;;15.51;67.26;102439.59;5054734;28;20028;-78
2022/09/20 07:35:08;;;;;;;0.10;0.10;;;;;;;15.59;67.04;102438.56;5072063;28;20021;-79
2022/09/20 07:37:35;;;;;;;0.10;0.10;;;;;;;15.62;66.91;102449.22;5066303;28;20040;-79
2022/09/20 07:40:02;;;;;;;0.10;0.10;;;;;;;15.61;65.98;102448.31;5067221;28;20063;-78
2022/09/20 07:42:29;;;;;;;0.10;0.10;;;;;;;15.65;66.03;102451.84;5071379;28;20036;-78
2022/09/20 07:44:55;;;;;;;0.32;0.32;;;;;;;15.68;65.06;102458.03;5061196;28;20017;-78
2022/09/20 07:47:24;;;;;;;0.10;0.10;;;;;;;15.72;65.64;102461.53;5054740;28;20043;-79
2022/09/20 07:49:50;;;;;;;0.10;0.10;;;;;;;15.74;64.59;102465.06;5054196;28;20021;-78
2022/09/20 07:52:17;;;;;;;0.10;0.10;;;;;;;15.80;64.88;102472.09;5068615;28;20074;-78
2022/09/20 07:54:44;;;;;;;0.10;0.10;;;;;;;15.83;64.87;102475.63;5073109;28;20108;-78
2022/09/20 07:57:12;;;;;;;1.58;1.02;;;;;;;15.86;64.22;102472.03;5070588;28;20033;-78
2022/09/20 07:59:38;;;;;;;1.20;1.10;;;;;;;15.90;64.29;102478.22;5064596;28;20085;-79
2022/09/20 08:02:04;;;;;;;0.10;0.10;;;;;;;15.89;62.98;102481.78;5059151;28;20393;-77
2022/09/20 08:04:30;;;;;;;0.10;0.10;;;;;;;15.91;61.59;102482.66;5053637;28;20074;-77
2022/09/20 08:06:57;;;;;;;0.10;0.10;;;;;;;15.96;62.32;102488.81;5053296;28;20029;-78
2022/09/20 08:09:23;;;;;;;0.10;0.10;;;;;;;15.99;62.61;102494.13;5053650;28;20033;-77
2022/09/20 08:11:50;;;;;;;0.10;0.10;;;;;;;15.99;62.74;102495.00;5066484;28;20032;-77
2022/09/20 08:14:17;;;;;;;0.10;0.10;;;;;;;16.01;61.78;102492.28;5071661;28;20025;-77
2022/09/20 08:16:46;;;;;;;0.10;0.10;;;;;;;16.07;61.58;102496.66;5072147;28;20085;-77
2022/09/20 08:19:16;;;;;;;0.17;0.17;;;;;;;16.12;60.72;102497.47;5069199;28;20029;-77
2022/09/20 08:21:43;;;;;;;0.10;0.10;;;;;;;16.14;60.19;102495.66;5070971;28;20024;-77
2022/09/20 08:24:09;;;;;;;0.00;0.00;;;;;;;16.21;61.94;102499.09;5069639;28;20104;-78
2022/09/20 08:26:35;;;;;;;0.10;0.10;;;;;;;16.27;61.08;102501.66;5065369;28;20025;-78
2022/09/20 08:29:04;;;;;;;0.10;0.10;;;;;;;16.33;61.05;102504.22;5059156;28;20049;-77
2022/09/20 08:31:34;;;;;;;0.73;0.73;;;;;;;16.39;60.56;102509.47;5070278;28;20099;-78
2022/09/20 08:34:02;;;;;;;0.00;0.00;;;;;;;16.46;61.17;102504.88;5065758;28;20040;-78
2022/09/20 08:36:30;;;;;;;0.20;0.20;;;;;;;16.54;60.87;102505.63;5066604;28;20025;-77
2022/09/20 08:38:57;;;;;;;0.10;0.10;;;;;;;16.55;60.02;102514.53;5069051;28;20507;-77
2022/09/20 08:41:32;;;;;;;0.05;0.05;;;;;;;16.59;60.95;102514.47;5070148;28;20037;-77
2022/09/20 08:44:06;;;;;;;0.10;0.10;;;;;;;16.64;59.47;102511.72;5053838;28;20032;-79
2022/09/20 08:46:36;;;;;;;0.10;0.10;;;;;;;16.70;60.22;102518.72;5071913;28;20035;-77
2022/09/20 08:49:06;;;;;;;0.00;0.00;;;;;;;16.76;59.65;102521.28;5063752;28;20047;-78
2022/09/20 08:51:38;;;;;;;0.10;0.10;;;;;;;16.78;58.58;102522.16;5067140;28;20036;-78
2022/09/20 08:54:12;;;;;;;0.10;0.10;;;;;;;16.93;60.60;102523.66;5058783;28;20043;-78
2022/09/20 08:56:38;;;;;;;0.10;0.10;;;;;;;16.96;60.23;102523.63;5071176;28;20048;-78
2022/09/20 08:59:08;;;;;;;0.10;0.10;;;;;;;17.03;60.47;102517.22;5067295;28;20123;-78
2022/09/20 09:01:35;;;;;;;0.10;0.10;;;;;;;17.09;59.19;102521.56;5068409;28;20035;-78
2022/09/20 09:04:22;;;;;;;0.43;0.25;;;;;;;17.21;59.81;102525.78;5065972;28;20028;-78
2022/09/20 09:06:51;;;;;;;0.10;0.10;;;;;;;17.24;57.33;102526.59;5071362;28;20104;-78
2022/09/20 09:09:27;;;;;;;0.10;0.10;;;;;;;17.35;58.90;102521.00;5065804;28;20043;-79
2022/09/20 09:11:55;;;;;;;0.10;0.10;;;;;;;17.37;59.51;102527.22;5064802;28;20028;-79
2022/09/20 09:15:01;;;;;;;0.10;0.10;;;;;;;17.45;58.57;102525.25;5064192;28;20043;-80
2022/09/20 09:17:19;;;;;;;0.10;0.10;;;;;;;17.54;59.51;102525.97;5063455;28;20040;-79
2022/09/20 09:19:49;;;;;;;0.10;0.10;;;;;;;17.61;58.01;102527.59;5067459;28;20032;-78
2022/09/20 09:22:21;;;;;;;0.10;0.10;;;;;;;17.74;59.17;102530.88;5077927;28;20377;-78
2022/09/20 09:35:58;;;;;;;0.35;0.35;;;;;;;17.97;55.94;102522.31;5027119;28;20419;-76
2022/09/20 09:38:28;;;;;;;0.10;0.10;;;;;;;18.03;56.09;102516.81;5008847;28;20104;-76
2022/09/20 09:40:57;;;;;;;0.10;0.10;;;;;;;18.07;57.29;102520.31;5006860;28;20022;-76
2022/09/20 09:43:27;;;;;;;0.20;0.20;;;;;;;18.16;56.36;102532.59;5004541;28;20512;-76
2022/09/20 09:45:56;;;;;;;0.98;0.98;;;;;;;18.27;56.22;102530.53;5009257;28;20042;-77
2022/09/20 09:48:29;;;;;;;0.10;0.10;;;;;;;18.48;57.52;102528.19;5004592;28;20053;-76
2022/09/20 09:51:14;;;;;;;1.73;0.90;;;;;;;18.57;56.81;102527.97;5008399;28;20500;-76
2022/09/20 09:53:42;;;;;;;17.42;1.10;;;;;;;18.59;56.11;102536.84;4997827;28;20039;-76
2022/09/20 09:59:06;;;;;;;0.10;0.10;;;;;;;18.49;55.86;102546.06;5061082;28;20390;-77
2022/09/20 10:02:01;;;;;;;0.10;0.10;;;;;;;18.50;56.33;102545.16;5043967;28;20036;-76
2022/09/20 10:07:45;;;;;;;0.10;0.10;;;;;;;18.62;55.54;102536.78;5123522;27;20383;-75
2022/09/20 10:10:40;;;;;;;0.10;0.10;;;;;;;18.75;56.01;102548.03;5096610;28;20060;-75
2022/09/20 10:13:34;;;;;;;0.10;0.10;;;;;;;18.86;54.20;102531.66;5102420;28;20020;-77
2022/09/20 10:16:16;;;;;;;0.10;0.10;;;;;;;18.89;54.06;102539.59;5091352;28;20035;-76
2022/09/20 10:27:38;;;;;;;0.10;0.10;;;;;;;19.30;54.56;102529.53;5087236;27;20397;-77
2022/09/20 10:30:24;;;;;;;0.10;0.10;;;;;;;19.43;54.04;102527.34;5083708;28;20044;-77
2022/09/20 10:33:09;;;;;;;0.10;0.10;;;;;;;19.66;53.81;102529.28;5072719;28;20064;-77
2022/09/20 10:35:54;;;;;;;0.28;0.28;;;;;;;19.83;53.78;102522.56;5074564;28;20016;-76
2022/09/20 10:38:35;;;;;;;0.00;0.00;;;;;;;19.90;54.55;102532.19;5087877;28;20111;-77
2022/09/20 10:44:37;;;;;;;0.10;0.10;;;;;;;19.79;53.62;102531.59;5083116;28;20588;-77
2022/09/20 10:47:13;;;;;;;0.13;0.13;;;;;;;19.68;53.06;102534.66;5069528;28;20028;-76
2022/09/20 10:58:08;;;;;;;0.20;0.20;;;;;;;19.31;54.64;102533.09;5110883;27;20354;-78
2022/09/20 11:06:21;;;;;;;0.10;0.10;;;;;;;19.66;50.54;102531.97;5050943;28;20396;-77
2022/09/20 11:08:53;;;;;;;0.10;0.10;;;;;;;19.82;52.49;102531.50;5040954;28;20048;-77
2022/09/20 11:11:24;;;;;;;0.10;0.10;;;;;;;19.95;51.06;102532.03;5039133;28;20022;-77
2022/09/20 11:14:31;;;;;;;0.10;0.10;;;;;;;20.15;50.66;102532.25;5044189;28;20022;-77
2022/09/20 11:20:13;;;;;;;0.10;0.10;;;;;;;20.34;50.68;102527.13;5108427;27;20380;-77
2022/09/20 11:25:43;;;;;;;0.10;0.10;;;;;;;20.38;48.93;102529.72;5051002;27;20412;-76
2022/09/20 11:28:32;;;;;;;0.20;0.20;;;;;;;20.33;49.40;102533.41;5055153;28;20044;-76
2022/09/20 11:31:22;;;;;;;0.10;0.10;;;;;;;20.27;49.91;102538.16;5051803;28;20025;-76
2022/09/20 11:34:10;;;;;;;0.10;0.10;;;;;;;20.34;49.66;102535.19;5054779;28;20117;-76
2022/09/20 11:36:51;;;;;;;0.10;0.10;;;;;;;20.33;48.88;102533.41;5052758;28;20031;-77
2022/09/20 11:41:58;;;;;;;0.10;0.10;;;;;;;20.36;49.62;102538.72;5053928;28;20903;-78
2022/09/20 11:44:25;;;;;;;0.10;0.10;;;;;;;20.41;47.61;102530.50;5053641;28;20029;-78
2022/09/20 11:50:13;;;;;;;0.05;0.05;;;;;;;20.58;46.99;102526.31;5109505;27;20401;-78
2022/09/20 11:52:59;;;;;;;0.10;0.10;;;;;;;20.62;46.64;102531.56;5087396;28;20480;-78
2022/09/20 11:55:56;;;;;;;0.10;0.10;;;;;;;20.72;48.28;102533.94;5096299;28;20032;-79
2022/09/20 11:58:22;;;;;;;0.10;0.10;;;;;;;20.77;47.62;102527.47;5097886;28;20054;-79
2022/09/20 12:00:53;;;;;;;0.10;0.10;;;;;;;20.94;47.51;102534.03;5096489;28;20492;-78
2022/09/20 12:03:43;;;;;;;0.77;0.77;;;;;;;21.18;47.24;102532.22;5094560;28;20027;-78
2022/09/20 12:06:32;;;;;;;0.10;0.10;;;;;;;21.30;46.74;102534.44;5101588;28;20039;-79
2022/09/20 12:09:00;;;;;;;0.00;0.00;;;;;;;21.26;44.67;102538.22;5088092;28;20706;-79
2022/09/20 12:11:37;;;;;;;0.10;0.10;;;;;;;21.25;45.03;102531.06;5088997;28;20043;-78
2022/09/20 12:14:16;;;;;;;0.20;0.20;;;;;;;21.00;42.13;102531.97;5088689;28;20028;-79
2022/09/20 12:16:46;;;;;;;0.10;0.10;;;;;;;20.83;44.76;102527.22;5088546;28;20435;-76
2022/09/20 12:24:38;;;;;;;0.10;0.10;;;;;;;20.29;47.44;102531.78;5101671;27;20589;-76
2022/09/20 12:30:16;;;;;;;0.10;0.10;;;;;;;19.88;46.67;102536.72;5125561;27;20385;-76
2022/09/20 12:32:46;;;;;;;0.10;0.10;;;;;;;19.64;47.08;102544.63;5113292;28;20070;-75
2022/09/20 12:41:02;;;;;;;0.10;0.10;;;;;;;19.18;46.34;102540.63;5103883;27;1167200;-77
2022/09/20 12:43:31;;;;;;;0.10;0.10;;;;;;;19.04;47.45;102543.69;5126372;27;20058;-77
2022/09/20 12:45:59;;;;;;;1.48;1.38;;;;;;;18.91;47.38;102548.53;5124193;28;20027;-79
2022/09/20 12:48:26;;;;;;;0.10;0.10;;;;;;;18.81;47.27;102541.66;5119385;27;20544;-79
2022/09/20 12:54:09;;;;;;;0.10;0.10;;;;;;;18.70;48.32;102545.47;5128839;28;20043;-79
2022/09/20 12:56:38;;;;;;;0.00;0.00;;;;;;;18.66;47.79;102535.75;5122783;27;20158;-80
2022/09/20 12:59:19;;;;;;;0.10;0.10;;;;;;;18.68;48.27;102533.03;5130459;27;20028;-79
2022/09/20 13:01:46;;;;;;;0.10;0.10;;;;;;;18.71;48.46;102541.88;5130635;27;20031;-79
2022/09/20 13:04:50;;;;;;;0.10;0.10;;;;;;;18.90;48.26;102533.31;5131699;27;20128;-79
2022/09/20 13:07:36;;;;;;;0.13;0.13;;;;;;;19.03;49.97;102529.41;5121708;27;20039;-80
2022/09/20 13:10:15;;;;;;;0.10;0.10;;;;;;;19.10;47.69;102537.28;5125529;28;20043;-80
2022/09/20 13:12:42;;;;;;;0.10;0.10;;;;;;;19.17;47.96;102547.78;5131490;27;20019;-79
2022/09/20 13:15:18;;;;;;;0.10;0.10;;;;;;;19.46;47.56;102526.38;5130940;27;20504;-79
2022/09/20 13:17:46;;;;;;;4.07;1.75;;;;;;;19.73;46.76;102538.94;5129592;27;20031;-79
2022/09/20 13:20:19;;;;;;;0.38;0.38;;;;;;;20.13;45.92;102530.53;5128443;27;20501;-80
2022/09/20 13:22:46;;;;;;;0.00;0.00;;;;;;;20.45;46.81;102528.53;5118823;28;20067;-80
2022/09/20 13:25:15;;;;;;;0.00;0.00;;;;;;;20.79;46.23;102532.78;5113658;27;20095;-80
2022/09/20 13:27:56;;;;;;;0.08;0.08;;;;;;;21.04;45.57;102542.66;5127266;28;20031;-80
2022/09/20 13:30:25;;;;;;;0.10;0.10;;;;;;;21.18;44.95;102532.22;5131091;27;20020;-80
2022/09/20 13:32:52;;;;;;;0.08;0.08;;;;;;;21.24;44.52;102526.59;5125454;27;20387;-80
2022/09/20 13:35:22;;;;;;;0.10;0.10;;;;;;;21.20;42.87;102532.16;5129919;27;20035;-80
2022/09/20 13:37:54;;;;;;;0.10;0.10;;;;;;;21.27;43.83;102531.00;5132502;27;20126;-80
2022/09/20 13:40:39;;;;;;;0.10;0.10;;;;;;;21.35;44.03;102531.59;5130651;27;20049;-80
2022/09/20 13:43:16;;;;;;;0.10;0.10;;;;;;;21.50;42.39;102522.03;5132169;27;20390;-80
2022/09/20 13:45:43;;;;;;;0.10;0.10;;;;;;;21.73;44.51;102522.94;5129356;28;20030;-80
2022/09/20 13:48:09;;;;;;;0.10;0.10;;;;;;;21.90;42.59;102515.03;5132491;27;20102;-80
2022/09/20 13:50:37;;;;;;;0.10;0.10;;;;;;;22.13;44.06;102516.78;5125203;27;20032;-80
2022/09/20 13:53:14;;;;;;;0.05;0.05;;;;;;;22.35;41.33;102521.25;5118204;28;20054;-80
2022/09/20 13:55:42;;;;;;;0.10;0.10;;;;;;;22.39;41.25;102516.63;5118608;28;20030;-80
2022/09/20 13:58:19;;;;;;;0.10;0.10;;;;;;;22.40;40.25;102521.09;5114998;28;20098;-80
2022/09/20 14:00:52;;;;;;;0.10;0.10;;;;;;;22.22;43.41;102520.91;5117497;28;20020;-80
2022/09/20 14:03:20;;;;;;;0.10;0.10;;;;;;;21.94;42.54;102514.00;5116756;27;20071;-80
2022/09/20 14:05:49;;;;;;;0.30;0.30;;;;;;;21.72;44.07;102518.47;5115677;28;20038;-80
2022/09/20 14:08:25;;;;;;;0.10;0.10;;;;;;;21.56;44.13;102519.13;5111989;28;20031;-79
2022/09/20 14:11:14;;;;;;;0.10;0.10;;;;;;;21.48;44.33;102513.09;5114506;28;20123;-80
2022/09/20 14:13:43;;;;;;;0.10;0.10;;;;;;;21.28;45.02;102511.19;5115363;28;20480;-80
2022/09/20 14:16:10;;;;;;;0.03;0.03;;;;;;;21.15;43.60;102516.19;5114616;28;20019;-80
2022/09/20 14:18:39;;;;;;;0.10;0.10;;;;;;;21.04;44.47;102521.97;5112895;28;20035;-79
2022/09/20 14:21:08;;;;;;;0.22;0.22;;;;;;;20.82;41.25;102516.50;5113743;28;20027;-79
2022/09/20 14:23:50;;;;;;;0.10;0.10;;;;;;;20.75;44.71;102512.25;5112635;28;20113;-80
2022/09/20 14:28:54;;;;;;;0.10;0.10;;;;;;;20.48;45.67;102510.47;5098230;27;20366;-78
2022/09/20 14:31:27;;;;;;;0.10;0.10;;;;;;;20.42;42.88;102512.50;5075324;28;20393;-77
2022/09/20 14:33:59;;;;;;;0.10;0.10;;;;;;;20.32;44.37;102507.44;5092322;28;20036;-78
2022/09/20 14:36:29;;;;;;;0.10;0.10;;;;;;;20.16;44.45;102514.28;5071419;28;20650;-78
2022/09/20 14:39:01;;;;;;;0.20;0.20;;;;;;;20.01;42.28;102504.91;5069241;28;20031;-78
2022/09/20 14:41:33;;;;;;;;;;;;;;;20.09;43.57;102508.25;5074392;28;20024;-78
2022/09/20 14:44:03;;;;;;;0.10;0.10;;;;;;;19.95;39.53;102506.00;5072780;28;20317;-78
2022/09/20 14:46:34;;;;;;;0.10;0.10;;;;;;;20.08;40.40;102500.22;5061478;28;20090;-78
2022/09/20 14:49:29;;;;;;;0.10;0.10;;;;;;;20.38;41.91;102508.19;5074830;28;20021;-78
2022/09/20 14:52:33;;;;;;;0.10;0.10;;;;;;;20.45;36.74;102501.63;5076661;28;20031;-79
2022/09/20 14:58:09;;;;;;;0.20;0.20;;;;;;;20.72;37.42;102496.22;5099005;27;20178;-79
2022/09/20 15:06:13;;;;;;;0.10;0.10;;;;;;;20.93;35.86;102494.56;5099605;27;1167159;-78
2022/09/20 15:08:39;;;;;;;0.10;0.10;;;;;;;21.04;37.58;102502.25;5132191;27;20027;-78
2022/09/20 15:11:05;;;;;;;0.10;0.10;;;;;;;21.14;37.43;102492.88;5119572;28;20028;-78
2022/09/20 15:13:32;;;;;;;0.10;0.10;;;;;;;21.21;37.67;102490.78;5110198;28;20047;-78
2022/09/20 15:16:01;;;;;;;3.55;1.65;;;;;;;21.37;39.15;102504.56;5109103;28;20415;-80
2022/09/20 15:18:33;;;;;;;0.10;0.10;;;;;;;21.41;37.14;102495.41;5107215;28;20031;-80
2022/09/20 15:21:00;;;;;;;0.10;0.10;;;;;;;21.49;37.74;102494.16;5104943;28;20028;-81
2022/09/20 15:23:29;;;;;;;0.10;0.10;;;;;;;21.48;36.62;102491.53;5109683;28;20028;-81
2022/09/20 15:25:55;;;;;;;0.10;0.10;;;;;;;21.47;36.64;102495.16;5109981;28;20028;-81